Delta Virtual Airport Information Service

Nashville International Airport

ICAO: KBNA Country: United States
Latitude: 36.1245 Longitude: -86.6781
Latest Arrival : DAL2470 (1C) (KATL-KBNA) Latest Departure : SWA1752 (B) (KBNA-KTPA)


WX CaptureLIVE
Data provided by noaa.gov | Fetched at 09:16:24

METAR : KBNA 281353Z 16008KT 10SM FEW016 SCT026 SCT045 BKN200 BKN250 22/17 A3001 RMK AO2 SLP158 T02170172

TAF : KBNA 281120Z 2812/2912 00000KT P6SM SCT040 BKN140 BKN250 TEMPO 2813/2815 BKN030 FM281500 18006KT P6SM BKN060 FM281800 19008KT P6SM VCSH BKN100 TEMPO 2819/2823 4SM -TSRA OVC035CB FM290600 19005KT P6SM BKN100


Runway Data for KBNA
Data provided by openaviationdata.com

Runway ID Mag Var Hdg Length Elevation Surface ILS Freq ILS Id ILS Slope
02L -1 19° 7711 ft 545 ft Concrete 109.9 IBNA 3
02R -1 19° 8009 ft 545 ft Concrete 111.75 IUQU 3
02C -1 19° 8010 ft 545 ft Concrete 110.75 IEZN 3
13 -1 135° 11030 ft 545 ft Asphalt -- -- --
20L -1 199° 8009 ft 545 ft Concrete 109.35 ISSX 3
20R -1 199° 7711 ft 545 ft Concrete 111.3 IVIY 3
20C -1 199° 8010 ft 545 ft Concrete -- -- --
31 -1 315° 11030 ft 545 ft Asphalt 111.95 IPNO 3

Nashville International Airport, United States
Use only for reference purposes



Not for navigational purposes.